To NAV CANADA Home Page Login to a new session Search on AWWS site Feedback and Comments Disclaimer Vers la page française équivalente Tips FAQ What's new on the site To the Forecasts and Observations / NOTAM section To "File a Flight Plan" website Publications and other links Update of the User's profile FIC Telephone Numbers My Weather Data Folder Route Weather Data Regional Weather Data Local Weather Data To the Forecasts and Observations / NOTAM section
Request Generated 05/05/2016 at 02:54:43 UTC . Weather information available at that time is displayed.

METAR/TAF

HALIFAX/SHEARWATER/NS    

SPECI CYAW 050025Z 06006KT 15SM FEW008 BKN020 BKN150 06/05 A2998 RMK SF1SC6AC1 DA-929FT LAST OBS/NXT 051100 UTC SLP154=
METAR CYAW 050000Z 07004KT 15SM FEW010 BKN025 OVC100 05/04 A3000 RMK SF1SC6AC2 DA-991FT SLP160=
METAR CYAW 042300Z 13007KT 15SM BKN025 OVC230 06/04 A2998 RMK SC6CS1 DA-918FT SLP153=

TAF AMD CYAW 050031Z 0420/0508 FCST CNCLD DUE END OF FLYING PROGRAM
RMK NXT FCST WILL BE ISSUED AT 051215Z=
Your time UTC time
Weather data provided by Environment Canada and NAV CANADA